Aviation Digital Data Service (ADDS)

Output produced by METARs form (0555 UTC 24 May 2017)
found at http://aviationweather.gov/adds/metars/
 
KDET 240525Z 2406/2506 06004KT P6SM SCT100 
     FM241400 08007KT P6SM BKN050 
     FM241700 09008KT 5SM -SHRA BR BKN028 
     PROB30 2417/2421 -TSRA BKN025CB 
     FM250000 07011KT 4SM -SHRA BR BKN015